Eems Trader — V2DE3 — position and weather

sailwx.info

Track history (hours):
 
Tides and Currents Weather Stations Pressure Air Temp Water Temp Dewpoint Dewpoint Depression Visibility Wind Speed Wind Dir Waves Ship Positions

Eems Trader

Last reported at 2014-Sep-20 08:12 UTC. Time now 2014-Sep-23 18:27 UTC.
Position N 38°12' W 000°10'.

; draft 3.1 m.

Type: Cargo ship. MMSI: 305182000.

Date/timePositionNaut miles runAvg speedWind from/ knotsBaromVisibWave heightAir tempDewpointWater temp
2014-Sep-20 08:12N 38°12' W 000°10'12 7.2
2014-Sep-20 06:32N 38°06' E 000°03'8 6.6
2014-Sep-20 05:16N 37°58' E 000°06'6 8.4
2014-Sep-20 04:33N 37°52' E 000°05'17 8.1
2014-Sep-20 02:27N 37°36' E 000°00'12 6.3
2014-Sep-20 00:30N 37°32' E 000°15'17 8.4
2014-Sep-19 22:27N 37°32' E 000°37'7 8.4
2014-Sep-19 21:33N 37°33' E 000°46'28 8.6
2014-Sep-19 18:18N 37°32' E 001°21'6 8.3
2014-Sep-19 17:33N 37°30' E 001°29'9 8.5
2014-Sep-19 16:33N 37°26' E 001°38'8 8.4
2014-Sep-19 15:33N 37°22' E 001°48'10 8.2
2014-Sep-19 14:17N 37°17' E 001°59'14 8.3
2014-Sep-19 12:33N 37°10' E 002°15'  
2014-Sep-13 11:03N 36°46' E 003°04'11 0.6
2014-Sep-12 16:27N 36°54' E 002°55'8 9.2
2014-Sep-12 15:33N 36°58' E 002°45'8 8.4
2014-Sep-12 14:33N 37°02' E 002°36'9 8.9
2014-Sep-12 13:33N 37°06' E 002°26'96 6.9
2014-Sep-11 23:29N 38°17' E 001°03'15 7.6
2014-Sep-11 21:29N 38°32' E 000°59'17 8.5
2014-Sep-11 19:32N 38°46' E 000°48'10 8.9
2014-Sep-11 18:24N 38°54' E 000°40'57 9.1
2014-Sep-11 12:04N 39°36' W 000°11'4 2.2
2014-Sep-11 10:26N 39°39' W 000°13'0 0.0
2014-Sep-10 23:13N 39°39' W 000°13'  
Track history (hours):
 
Tides and Currents Weather Stations Pressure Air Temp Water Temp Dewpoint Dewpoint Depression Visibility Wind Speed Wind Dir Waves Ship Positions

Eems Trader

Last reported at 2014-Sep-20 08:12 UTC. Time now 2014-Sep-23 18:27 UTC.
Position N 38°12' W 000°10'.

; draft 3.1 m.

Type: Cargo ship. MMSI: 305182000.

Date/timePositionNaut miles runAvg speedWind from/ knotsBaromVisibWave heightAir tempDewpointWater temp
2014-Sep-20 08:12N 38°12' W 000°10'12 7.2
2014-Sep-20 06:32N 38°06' E 000°03'8 6.6
2014-Sep-20 05:16N 37°58' E 000°06'6 8.4
2014-Sep-20 04:33N 37°52' E 000°05'17 8.1
2014-Sep-20 02:27N 37°36' E 000°00'12 6.3
2014-Sep-20 00:30N 37°32' E 000°15'17 8.4
2014-Sep-19 22:27N 37°32' E 000°37'7 8.4
2014-Sep-19 21:33N 37°33' E 000°46'28 8.6
2014-Sep-19 18:18N 37°32' E 001°21'6 8.3
2014-Sep-19 17:33N 37°30' E 001°29'9 8.5
2014-Sep-19 16:33N 37°26' E 001°38'8 8.4
2014-Sep-19 15:33N 37°22' E 001°48'10 8.2
2014-Sep-19 14:17N 37°17' E 001°59'14 8.3
2014-Sep-19 12:33N 37°10' E 002°15'  
2014-Sep-13 11:03N 36°46' E 003°04'11 0.6
2014-Sep-12 16:27N 36°54' E 002°55'8 9.2
2014-Sep-12 15:33N 36°58' E 002°45'8 8.4
2014-Sep-12 14:33N 37°02' E 002°36'9 8.9
2014-Sep-12 13:33N 37°06' E 002°26'96 6.9
2014-Sep-11 23:29N 38°17' E 001°03'15 7.6
2014-Sep-11 21:29N 38°32' E 000°59'17 8.5
2014-Sep-11 19:32N 38°46' E 000°48'10 8.9
2014-Sep-11 18:24N 38°54' E 000°40'57 9.1
2014-Sep-11 12:04N 39°36' W 000°11'4 2.2
2014-Sep-11 10:26N 39°39' W 000°13'0 0.0
2014-Sep-10 23:13N 39°39' W 000°13'  

Dump ship's entire track history